Aviation Digital Data Service (ADDS)

Output produced by METARs form (0045 UTC 17 January 2017)
found at http://aviationweather.gov/adds/metars/
 
KBAF 162341Z 1700/1724 21004KT P6SM SCT250 
     FM170500 VRB03KT P6SM BKN250 
     FM172000 09004KT 6SM -RA OVC045 
     FM172100 09004KT 5SM -RA OVC035 
     FM172200 09004KT 3SM -RAPL OVC030 
     FM172300 09005KT 3SM -RAPL OVC020